Time;durP1;ratioP1;P1;durP2;ratioP2;P2;SDS_P1;SDS_P2;PMS_P1;PMS_P2;Temp;Humidity;BMP_temperature;BMP_pressure;BME280_temperature;BME280_humidity;BME280_pressure;Samples;Min_cycle;Max_cycle;Signal;HPM_P1;HPM_P2
2024/03/05 00:00:33;;;;;;;;;;;;;;;21.71;27.52;97484.75;5059548;28;1000;-76
2024/03/05 00:02:59;;;;;;;;;;;;;;;21.66;27.82;97479.69;5057683;28;1493;-76
2024/03/05 00:05:24;;;;;;;;;;;;;;;21.97;27.39;97481.81;5079623;28;1003;-76
2024/03/05 00:07:50;;;;;;;;;;;;;;;21.96;27.09;97474.56;5079494;28;1035;-76
2024/03/05 00:10:16;;;;;;;;;;;;;;;21.44;27.88;97473.94;5062707;28;1027;-76
2024/03/05 00:12:42;;;;;;;;;;;;;;;21.39;27.74;97465.25;5078253;28;1977;-76
2024/03/05 00:15:07;;;;;;;;;;;;;;;21.51;27.41;97462.41;5096032;28;944;-76
2024/03/05 00:17:33;;;;;;;;;;;;;;;21.90;27.35;97465.84;5079846;28;1129;-76
2024/03/05 00:19:58;;;;;;;;;;;;;;;21.78;27.57;97461.84;5096175;28;1004;-76
2024/03/05 00:22:24;;;;;;;;;;;;;;;21.96;27.10;97457.56;5096501;28;1345;-76
2024/03/05 00:24:49;;;;;;;;;;;;;;;22.05;27.13;97460.47;5075602;28;994;-75
2024/03/05 00:27:15;;;;;;;;;;;;;;;21.84;27.15;97451.50;5075696;28;995;-75
2024/03/05 00:29:43;;;;;;;;;;;;;;;21.82;27.10;97442.69;5075164;28;976;-76
2024/03/05 00:32:09;;;;;;;;;;;;;;;21.53;27.52;97447.78;5075055;28;1468;-76
2024/03/05 00:34:34;;;;;;;;;;;;;;;21.67;27.60;97449.31;5058207;28;1906;-76
2024/03/05 00:37:00;;;;;;;;;;;;;;;21.89;27.15;97446.50;5075730;28;915;-75
2024/03/05 00:39:25;;;;;;;;;;;;;;;21.95;27.04;97450.31;5075194;28;1089;-76
2024/03/05 00:41:51;;;;;;;;;;;;;;;21.99;27.24;97446.09;5069746;28;1477;-76
2024/03/05 00:44:16;;;;;;;;;;;;;;;21.76;27.40;97438.88;5038422;28;1030;-76
2024/03/05 00:46:42;;;;;;;;;;;;;;;21.58;27.31;97427.38;5055800;28;956;-76
2024/03/05 00:49:08;;;;;;;;;;;;;;;21.42;27.55;97427.56;5055001;28;1233;-77
2024/03/05 00:51:33;;;;;;;;;;;;;;;21.59;27.60;97437.44;5038001;28;1476;-76
2024/03/05 00:53:59;;;;;;;;;;;;;;;21.71;27.65;97425.28;5055032;28;1910;-76
2024/03/05 00:56:24;;;;;;;;;;;;;;;21.70;27.43;97440.69;5085593;28;947;-76
2024/03/05 00:58:50;;;;;;;;;;;;;;;21.93;27.35;97430.97;5078281;28;993;-76
2024/03/05 01:01:15;;;;;;;;;;;;;;;21.84;27.13;97439.38;5078766;28;948;-75
2024/03/05 01:03:41;;;;;;;;;;;;;;;21.72;27.18;97421.22;5077967;28;1341;-76
2024/03/05 01:06:07;;;;;;;;;;;;;;;21.56;27.31;97429.88;5079029;28;1029;-75
2024/03/05 01:08:32;;;;;;;;;;;;;;;21.63;27.71;97428.84;5094982;28;1045;-76
2024/03/05 01:10:59;;;;;;;;;;;;;;;21.62;27.59;97433.72;5095728;28;1454;-76
2024/03/05 01:13:25;;;;;;;;;;;;;;;21.87;27.32;97420.69;5094206;28;1903;-76
2024/03/05 01:15:50;;;;;;;;;;;;;;;21.83;27.30;97418.78;5078460;28;1052;-76
2024/03/05 01:18:16;;;;;;;;;;;;;;;21.85;27.15;97424.75;5078018;28;902;-76
2024/03/05 01:20:41;;;;;;;;;;;;;;;21.79;27.22;97415.28;5105095;28;1476;-77
2024/03/05 01:23:10;;;;;;;;;;;;;;;21.27;27.56;97407.41;5115480;28;971;-76
2024/03/05 01:25:37;;;;;;;;;;;;;;;21.01;28.22;97412.34;5099014;28;931;-76
2024/03/05 01:28:03;;;;;;;;;;;;;;;21.60;27.65;97413.53;5081599;28;1108;-76
2024/03/05 01:30:29;;;;;;;;;;;;;;;21.64;27.47;97408.53;5080736;28;1428;-75
2024/03/05 01:32:57;;;;;;;;;;;;;;;21.88;27.25;97417.38;5081437;28;1975;-76
2024/03/05 01:35:22;;;;;;;;;;;;;;;21.85;27.21;97407.75;5098447;28;1082;-76
2024/03/05 01:37:48;;;;;;;;;;;;;;;21.68;27.20;97419.75;5115439;28;1051;-76
2024/03/05 01:40:14;;;;;;;;;;;;;;;21.80;27.23;97411.19;5097121;28;1292;-76
2024/03/05 01:42:40;;;;;;;;;;;;;;;21.51;27.28;97411.44;5098715;28;1062;-76
2024/03/05 01:45:06;;;;;;;;;;;;;;;21.66;27.26;97405.25;5095459;28;875;-76
2024/03/05 01:47:32;;;;;;;;;;;;;;;21.87;27.27;97403.69;5096376;28;928;-76
2024/03/05 01:49:57;;;;;;;;;;;;;;;21.97;26.90;97403.31;5073312;28;1459;-76
2024/03/05 01:52:23;;;;;;;;;;;;;;;22.05;26.74;97392.47;5073993;28;1682;-76
2024/03/05 01:54:52;;;;;;;;;;;;;;;21.67;27.27;97395.53;5057488;28;1905;-76
2024/03/05 01:57:18;;;;;;;;;;;;;;;21.43;27.59;97387.47;5046017;28;935;-76
2024/03/05 01:59:43;;;;;;;;;;;;;;;21.27;27.77;97388.41;5078271;28;961;-76
2024/03/05 02:02:09;;;;;;;;;;;;;;;21.53;27.66;97396.81;5061449;28;1937;-76
2024/03/05 02:04:36;;;;;;;;;;;;;;;21.85;26.89;97385.09;5081732;28;952;-76
2024/03/05 02:07:06;;;;;;;;;;;;;;;21.90;26.92;97394.25;5098765;28;1002;-76
2024/03/05 02:09:32;;;;;;;;;;;;;;;21.78;26.95;97391.03;5098312;28;956;-76
2024/03/05 02:11:57;;;;;;;;;;;;;;;21.63;27.31;97386.38;5066013;28;1545;-77
2024/03/05 02:14:24;;;;;;;;;;;;;;;21.41;27.60;97389.19;5061191;28;1898;-76
2024/03/05 02:16:50;;;;;;;;;;;;;;;21.38;27.97;97379.56;5061819;28;991;-76
2024/03/05 02:19:16;;;;;;;;;;;;;;;21.73;27.51;97388.03;5060686;28;1326;-76
2024/03/05 02:21:44;;;;;;;;;;;;;;;22.03;27.01;97378.00;5075506;28;933;-77
2024/03/05 02:24:10;;;;;;;;;;;;;;;21.99;26.98;97383.00;5080012;28;978;-76
2024/03/05 02:26:35;;;;;;;;;;;;;;;21.93;27.05;97376.34;5080565;28;1046;-76
2024/03/05 02:29:01;;;;;;;;;;;;;;;21.58;27.10;97371.53;5079436;28;1339;-76
2024/03/05 02:31:27;;;;;;;;;;;;;;;21.20;27.67;97368.06;5080882;28;885;-76
2024/03/05 02:33:53;;;;;;;;;;;;;;;21.84;27.42;97366.53;5079834;28;1913;-76
2024/03/05 02:36:20;;;;;;;;;;;;;;;22.02;26.83;97377.22;5062973;28;1035;-76
2024/03/05 02:38:45;;;;;;;;;;;;;;;21.99;27.09;97372.47;5062601;28;1388;-76
2024/03/05 02:41:11;;;;;;;;;;;;;;;22.12;26.98;97363.88;5101045;28;916;-76
2024/03/05 02:43:36;;;;;;;;;;;;;;;21.83;27.09;97364.97;5099737;28;926;-77
2024/03/05 02:46:02;;;;;;;;;;;;;;;21.79;27.10;97367.13;5100825;28;1014;-76
2024/03/05 02:48:27;;;;;;;;;;;;;;;21.47;27.41;97376.03;5083550;28;1102;-76
2024/03/05 02:50:53;;;;;;;;;;;;;;;21.69;27.69;97373.97;5112265;28;1500;-76
2024/03/05 02:53:18;;;;;;;;;;;;;;;21.67;27.78;97378.53;5100660;28;2001;-76
2024/03/05 02:55:44;;;;;;;;;;;;;;;21.79;27.29;97375.63;5117924;28;973;-76
2024/03/05 02:58:11;;;;;;;;;;;;;;;21.78;27.30;97385.38;5100902;28;994;-76
2024/03/05 03:00:37;;;;;;;;;;;;;;;21.94;27.44;97370.22;5116822;28;1331;-76
2024/03/05 03:03:03;;;;;;;;;;;;;;;21.81;27.43;97367.47;5084027;28;973;-76
2024/03/05 03:05:28;;;;;;;;;;;;;;;21.48;27.44;97371.94;5117917;28;1053;-76
2024/03/05 03:07:54;;;;;;;;;;;;;;;21.72;27.67;97369.44;5099979;28;1480;-75
2024/03/05 03:10:20;;;;;;;;;;;;;;;21.90;27.52;97357.44;5099529;28;1449;-76
2024/03/05 03:12:47;;;;;;;;;;;;;;;22.00;27.10;97350.59;5117252;28;1993;-75
2024/03/05 03:15:13;;;;;;;;;;;;;;;22.05;27.32;97353.59;5080162;28;1007;-76
2024/03/05 03:17:40;;;;;;;;;;;;;;;21.83;27.08;97345.13;5079943;28;950;-76
2024/03/05 03:20:07;;;;;;;;;;;;;;;21.41;27.90;97352.38;5047402;28;1469;-76
2024/03/05 03:22:33;;;;;;;;;;;;;;;21.37;27.68;97357.38;5060153;28;1007;-75
2024/03/05 03:24:59;;;;;;;;;;;;;;;21.77;27.60;97361.16;5059658;28;945;-76
2024/03/05 03:27:24;;;;;;;;;;;;;;;21.99;27.45;97360.34;5076631;28;1000;-76
2024/03/05 03:29:51;;;;;;;;;;;;;;;21.77;27.60;97358.31;5058273;28;1359;-76
2024/03/05 03:32:16;;;;;;;;;;;;;;;21.85;27.64;97359.63;5059965;28;988;-76
2024/03/05 03:34:42;;;;;;;;;;;;;;;21.58;27.57;97365.09;5059648;28;1898;-76
2024/03/05 03:37:08;;;;;;;;;;;;;;;21.42;27.84;97368.13;5076614;28;1020;-76
2024/03/05 03:39:36;;;;;;;;;;;;;;;21.45;27.54;97359.50;5058889;28;1409;-76
2024/03/05 03:42:01;;;;;;;;;;;;;;;21.79;27.64;97369.19;5076483;28;1417;-76
2024/03/05 03:44:27;;;;;;;;;;;;;;;21.96;27.21;97369.75;5075984;28;953;-76
2024/03/05 03:46:53;;;;;;;;;;;;;;;21.49;28.04;97367.84;5076352;28;1004;-76
2024/03/05 03:49:20;;;;;;;;;;;;;;;22.04;27.38;97368.25;5043103;28;922;-76
2024/03/05 03:51:45;;;;;;;;;;;;;;;21.60;27.66;97373.91;5061202;28;1468;-76
2024/03/05 03:54:11;;;;;;;;;;;;;;;21.52;27.61;97376.22;5079237;28;1964;-76
2024/03/05 03:56:36;;;;;;;;;;;;;;;21.59;27.40;97366.66;5096558;28;969;-76
2024/03/05 03:59:03;;;;;;;;;;;;;;;21.72;27.72;97370.25;5095973;28;1024;-76
2024/03/05 04:01:31;;;;;;;;;;;;;;;21.78;27.60;97374.06;5110954;28;1470;-76
2024/03/05 04:03:58;;;;;;;;;;;;;;;21.76;27.71;97376.56;5080256;28;1584;-76
2024/03/05 04:06:24;;;;;;;;;;;;;;;22.10;27.37;97366.38;5077436;28;1138;-76
2024/03/05 04:08:50;;;;;;;;;;;;;;;22.10;27.01;97377.72;5076901;28;999;-76
2024/03/05 04:11:15;;;;;;;;;;;;;;;21.77;27.58;97361.16;5072899;28;1545;-77
2024/03/05 04:13:43;;;;;;;;;;;;;;;21.71;27.48;97380.00;5078686;28;1902;-76
2024/03/05 04:16:09;;;;;;;;;;;;;;;21.66;27.41;97366.44;5080204;28;903;-76
2024/03/05 04:18:35;;;;;;;;;;;;;;;21.70;27.80;97372.72;5038021;28;1014;-76
2024/03/05 04:21:00;;;;;;;;;;;;;;;21.89;27.38;97367.19;5026344;28;1558;-76
2024/03/05 04:23:27;;;;;;;;;;;;;;;21.95;27.27;97359.69;5019776;28;1625;-76
2024/03/05 04:25:57;;;;;;;;;;;;;;;22.05;27.13;97359.28;5027807;28;1521;-76
2024/03/05 04:28:24;;;;;;;;;;;;;;;21.73;27.69;97365.38;5038368;28;1091;-76
2024/03/05 04:30:52;;;;;;;;;;;;;;;21.41;27.92;97363.72;5036933;28;1791;-76
2024/03/05 04:33:20;;;;;;;;;;;;;;;21.46;27.91;97360.28;5039054;28;1977;-76
2024/03/05 04:35:46;;;;;;;;;;;;;;;21.54;27.74;97364.44;5039026;28;1118;-76
2024/03/05 04:38:11;;;;;;;;;;;;;;;21.82;27.54;97357.72;5021826;28;1059;-76
2024/03/05 04:40:37;;;;;;;;;;;;;;;22.05;27.03;97358.47;5037963;28;1411;-76
2024/03/05 04:43:03;;;;;;;;;;;;;;;21.98;27.30;97370.09;5038767;28;974;-76
2024/03/05 04:45:29;;;;;;;;;;;;;;;21.45;27.84;97361.53;5038684;28;1561;-76
2024/03/05 04:47:54;;;;;;;;;;;;;;;21.70;27.13;97360.59;5025618;28;908;-76
2024/03/05 04:50:20;;;;;;;;;;;;;;;21.54;27.58;97364.44;5064530;28;1392;-76
2024/03/05 04:52:46;;;;;;;;;;;;;;;21.66;27.75;97360.75;5038897;28;1964;-76
2024/03/05 04:55:12;;;;;;;;;;;;;;;21.85;27.24;97361.66;5038742;28;934;-77
2024/03/05 04:57:38;;;;;;;;;;;;;;;21.94;27.26;97363.78;5022511;28;1458;-76
2024/03/05 05:00:19;;;;;;;;;;;;;;;21.96;26.86;97362.03;5041365;28;2102;-76
2024/03/05 05:02:51;;;;;;;;;;;;;;;21.95;27.11;97365.34;5074863;28;1118;-76
2024/03/05 05:05:17;;;;;;;;;;;;;;;21.83;26.90;97364.19;5054409;28;920;-77
2024/03/05 05:07:43;;;;;;;;;;;;;;;21.58;27.07;97370.75;5054630;28;1041;-76
2024/03/05 05:10:09;;;;;;;;;;;;;;;21.51;27.56;97365.38;5038012;28;1020;-76
2024/03/05 05:12:35;;;;;;;;;;;;;;;21.84;27.17;97366.53;5054834;28;1028;-77
2024/03/05 05:15:00;;;;;;;;;;;;;;;21.90;27.27;97360.28;5038265;28;2076;-75
2024/03/05 05:17:26;;;;;;;;;;;;;;;22.02;27.01;97362.22;5038348;28;1056;-77
2024/03/05 05:19:51;;;;;;;;;;;;;;;22.20;26.76;97365.19;5054805;28;956;-76
2024/03/05 05:22:17;;;;;;;;;;;;;;;21.67;27.02;97370.84;5019796;28;1229;-76
2024/03/05 05:24:43;;;;;;;;;;;;;;;21.63;27.15;97367.34;5030194;28;1262;-76
2024/03/05 05:27:09;;;;;;;;;;;;;;;21.47;27.41;97365.50;5029350;28;1284;-76
2024/03/05 05:29:36;;;;;;;;;;;;;;;21.70;27.34;97364.22;5032369;28;1484;-76
2024/03/05 05:32:01;;;;;;;;;;;;;;;21.68;27.32;97358.25;5026133;28;1281;-77
2024/03/05 05:34:27;;;;;;;;;;;;;;;21.77;27.20;97377.34;5040291;28;1922;-77
2024/03/05 05:36:52;;;;;;;;;;;;;;;21.85;26.96;97368.13;5056118;28;887;-76
2024/03/05 05:39:24;;;;;;;;;;;;;;;22.05;26.70;97370.59;5067010;28;1140;-76
2024/03/05 05:41:50;;;;;;;;;;;;;;;21.62;27.16;97377.09;5071850;28;1296;-76
2024/03/05 05:44:15;;;;;;;;;;;;;;;21.48;27.23;97372.72;5053848;28;1388;-76
2024/03/05 05:46:41;;;;;;;;;;;;;;;21.49;27.32;97374.28;5057014;28;1351;-77
2024/03/05 05:49:06;;;;;;;;;;;;;;;21.56;27.59;97379.72;5071307;28;1248;-77
2024/03/05 05:51:33;;;;;;;;;;;;;;;21.76;27.00;97373.75;5070288;28;1311;-77
2024/03/05 05:54:00;;;;;;;;;;;;;;;21.88;27.18;97374.91;5086138;28;1983;-76
2024/03/05 05:56:26;;;;;;;;;;;;;;;21.95;26.86;97371.00;5071556;28;1260;-77
2024/03/05 05:58:51;;;;;;;;;;;;;;;21.54;27.15;97381.41;5067555;28;1272;-77
2024/03/05 06:01:17;;;;;;;;;;;;;;;21.32;27.46;97376.53;5072576;28;1336;-77
2024/03/05 06:03:46;;;;;;;;;;;;;;;21.55;27.25;97389.47;5087339;28;1252;-77
2024/03/05 06:06:16;;;;;;;;;;;;;;;21.88;26.98;97385.44;5070571;28;1216;-77
2024/03/05 06:08:42;;;;;;;;;;;;;;;21.99;26.97;97383.78;5069962;28;1225;-77
2024/03/05 06:11:07;;;;;;;;;;;;;;;22.06;26.90;97388.38;5068551;28;1174;-77
2024/03/05 06:13:33;;;;;;;;;;;;;;;21.87;27.02;97392.38;5083241;28;1909;-76
2024/03/05 06:15:58;;;;;;;;;;;;;;;21.78;27.06;97385.38;5069083;28;1350;-77
2024/03/05 06:18:24;;;;;;;;;;;;;;;21.35;27.50;97397.47;5062036;28;1096;-75
2024/03/05 06:20:50;;;;;;;;;;;;;;;21.01;27.88;97379.19;5062387;28;1248;-72
2024/03/05 06:23:16;;;;;;;;;;;;;;;21.47;27.87;97381.69;5078599;28;1232;-73
2024/03/05 06:25:42;;;;;;;;;;;;;;;21.77;27.33;97383.81;5073334;28;1588;-66
2024/03/05 06:28:08;;;;;;;;;;;;;;;22.01;27.19;97380.47;5069596;28;1632;-68
2024/03/05 06:30:34;;;;;;;;;;;;;;;21.85;27.50;97384.31;5071533;28;1392;-68
2024/03/05 06:32:59;;;;;;;;;;;;;;;22.00;27.39;97385.34;5058841;28;1917;-69
2024/03/05 06:35:26;;;;;;;;;;;;;;;21.95;28.38;97383.13;5080319;28;1545;-72
2024/03/05 06:37:53;;;;;;;;;;;;;;;22.54;27.32;97383.31;5068589;28;1485;-74
2024/03/05 06:40:19;;;;;;;;;;;;;;;22.14;28.06;97384.06;5084742;28;1550;-73
2024/03/05 06:42:51;;;;;;;;;;;;;;;21.91;28.84;97395.84;5067633;28;1545;-76
2024/03/05 06:45:27;;;;;;;;;;;;;;;21.32;29.65;97399.16;5083619;28;1466;-69
2024/03/05 06:47:56;;;;;;;;;;;;;;;21.37;29.64;97394.16;5070355;28;1407;-68
2024/03/05 06:50:23;;;;;;;;;;;;;;;21.28;29.88;97397.66;5067654;28;1477;-68
2024/03/05 06:58:20;;;;;;;;;;;;;;;20.50;31.19;97389.75;5069485;28;1588;-69
2024/03/05 07:00:46;;;;;;;;;;;;;;;20.65;30.77;97396.53;5065792;28;1281;-68
2024/03/05 07:03:13;;;;;;;;;;;;;;;20.77;30.20;97392.91;5049458;28;1525;-68
2024/03/05 07:05:38;;;;;;;;;;;;;;;20.74;30.26;97399.47;5086495;28;1603;-68
2024/03/05 07:08:05;;;;;;;;;;;;;;;20.69;30.43;97397.22;5068144;28;1573;-68
2024/03/05 07:10:31;;;;;;;;;;;;;;;20.72;30.35;97385.00;5045155;28;1584;-68
2024/03/05 07:12:57;;;;;;;;;;;;;;;20.98;30.03;97393.44;5046272;28;1910;-67
2024/03/05 07:15:23;;;;;;;;;;;;;;;20.79;30.27;97395.28;5011244;28;1338;-67
2024/03/05 07:17:51;;;;;;;;;;;;;;;20.94;29.98;97395.63;5030617;28;1233;-68
2024/03/05 07:20:22;;;;;;;;;;;;;;;21.09;29.88;97391.06;5055725;28;1019;-68
2024/03/05 07:22:51;;;;;;;;;;;;;;;21.25;29.44;97393.72;5039022;28;1002;-68
2024/03/05 07:25:17;;;;;;;;;;;;;;;21.20;29.47;97402.00;5039079;28;1097;-69
2024/03/05 07:27:46;;;;;;;;;;;;;;;21.12;29.72;97400.66;5055599;28;1058;-69
2024/03/05 07:30:18;;;;;;;;;;;;;;;21.21;29.54;97404.38;5055460;28;1072;-68
2024/03/05 07:32:45;;;;;;;;;;;;;;;21.01;29.82;97403.84;5055589;28;1076;-68
2024/03/05 07:35:11;;;;;;;;;;;;;;;20.62;30.61;97408.75;5055309;28;1009;-70
2024/03/05 07:37:36;;;;;;;;;;;;;;;20.58;30.77;97402.44;5055567;28;1022;-66
2024/03/05 07:40:16;;;;;;;;;;;;;;;21.25;29.68;97407.88;5055524;28;1031;-67
2024/03/05 07:42:47;;;;;;;;;;;;;;;21.01;30.03;97415.16;5055371;28;1054;-69
2024/03/05 07:45:13;;;;;;;;;;;;;;;20.64;30.69;97411.94;5055317;28;1024;-68
2024/03/05 07:47:39;;;;;;;;;;;;;;;20.32;31.28;97404.44;5043400;28;968;-76
2024/03/05 07:50:06;;;;;;;;;;;;;;;20.12;31.62;97410.28;5039485;28;947;-70
2024/03/05 07:52:31;;;;;;;;;;;;;;;20.13;31.42;97413.91;5056700;28;1031;-68
2024/03/05 07:54:57;;;;;;;;;;;;;;;21.05;29.86;97413.03;5057068;28;1913;-68
2024/03/05 07:57:23;;;;;;;;;;;;;;;21.44;29.10;97399.56;5057394;28;889;-68
2024/03/05 07:59:50;;;;;;;;;;;;;;;21.48;28.92;97411.56;5057292;28;950;-68
2024/03/05 08:02:16;;;;;;;;;;;;;;;21.44;29.13;97402.41;5038843;28;980;-73
2024/03/05 08:04:41;;;;;;;;;;;;;;;21.44;28.82;97394.69;5055807;28;1077;-66
2024/03/05 08:07:07;;;;;;;;;;;;;;;21.41;28.88;97401.28;5057111;28;978;-68
2024/03/05 08:09:36;;;;;;;;;;;;;;;21.76;28.92;97404.88;5056126;28;1043;-70
2024/03/05 08:12:02;;;;;;;;;;;;;;;21.88;28.81;97410.94;5068549;28;1518;-80
2024/03/05 08:14:28;;;;;;;;;;;;;;;22.01;28.51;97400.31;5074590;28;1914;-69
2024/03/05 08:16:54;;;;;;;;;;;;;;;21.71;28.79;97407.50;5074577;28;1123;-66
2024/03/05 08:19:19;;;;;;;;;;;;;;;22.02;28.15;97393.38;5074570;28;1036;-68
2024/03/05 08:21:45;;;;;;;;;;;;;;;22.05;28.31;97398.13;5041300;28;1059;-68
2024/03/05 08:24:11;;;;;;;;;;;;;;;22.00;28.13;97393.06;5074196;28;1023;-67
2024/03/05 08:26:36;;;;;;;;;;;;;;;22.54;27.26;97395.44;5074643;28;1011;-69
2024/03/05 08:29:03;;;;;;;;;;;;;;;22.26;27.45;97385.22;5040635;28;1119;-75
2024/03/05 08:31:28;;;;;;;;;;;;;;;21.84;28.10;97383.53;5057630;28;1171;-75
2024/03/05 08:33:54;;;;;;;;;;;;;;;21.38;28.79;97390.09;5056436;28;1902;-74
2024/03/05 08:36:21;;;;;;;;;;;;;;;22.03;28.39;97389.31;5053930;28;1473;-76
2024/03/05 08:38:47;;;;;;;;;;;;;;;21.98;28.52;97395.59;5054229;28;1019;-75
2024/03/05 08:41:12;;;;;;;;;;;;;;;21.94;28.52;97389.25;5037383;28;933;-75
2024/03/05 08:43:38;;;;;;;;;;;;;;;21.97;28.34;97391.19;5037379;28;963;-75
2024/03/05 08:46:04;;;;;;;;;;;;;;;21.97;28.43;97391.19;5022483;28;1040;-74
2024/03/05 08:48:30;;;;;;;;;;;;;;;21.77;28.41;97386.63;5034018;28;993;-74
2024/03/05 08:50:58;;;;;;;;;;;;;;;21.96;28.19;97378.25;5034177;28;964;-68
2024/03/05 08:53:24;;;;;;;;;;;;;;;21.90;28.34;97363.09;5034100;28;1914;-69
2024/03/05 08:55:52;;;;;;;;;;;;;;;21.97;28.05;97379.84;5034104;28;1143;-68
2024/03/05 08:58:17;;;;;;;;;;;;;;;21.76;28.55;97376.56;5033767;28;1015;-74
2024/03/05 09:00:43;;;;;;;;;;;;;;;21.92;28.43;97371.94;5017378;28;1308;-74
2024/03/05 09:03:09;;;;;;;;;;;;;;;21.71;28.70;97384.84;5049424;28;969;-75
2024/03/05 09:05:35;;;;;;;;;;;;;;;22.12;28.09;97380.88;5037201;28;946;-74
2024/03/05 09:08:00;;;;;;;;;;;;;;;21.94;28.26;97380.75;5049785;28;904;-74
2024/03/05 09:10:26;;;;;;;;;;;;;;;21.93;28.29;97384.84;5074732;28;870;-76
2024/03/05 09:12:51;;;;;;;;;;;;;;;22.10;27.93;97383.38;5096930;28;1972;-76
2024/03/05 09:15:18;;;;;;;;;;;;;;;22.01;27.95;97386.16;5097593;28;969;-76
2024/03/05 09:17:44;;;;;;;;;;;;;;;21.36;29.06;97387.72;5097199;28;1157;-76
2024/03/05 09:20:15;;;;;;;;;;;;;;;21.20;29.30;97385.81;5080448;28;978;-76
2024/03/05 09:22:49;;;;;;;;;;;;;;;21.84;28.49;97394.84;5080993;28;1122;-76
2024/03/05 09:25:15;;;;;;;;;;;;;;;21.93;28.26;97390.53;5097558;28;1121;-76
2024/03/05 09:27:42;;;;;;;;;;;;;;;22.03;28.09;97395.00;5080183;28;954;-74
2024/03/05 09:30:08;;;;;;;;;;;;;;;22.02;28.07;97394.22;5080717;28;992;-75
2024/03/05 09:32:37;;;;;;;;;;;;;;;21.81;28.11;97395.81;5097112;28;1145;-74
2024/03/05 09:35:08;;;;;;;;;;;;;;;21.70;28.24;97400.25;5096971;28;1985;-75
2024/03/05 09:37:34;;;;;;;;;;;;;;;21.53;28.56;97396.81;5097824;28;1073;-74
2024/03/05 09:39:59;;;;;;;;;;;;;;;21.95;28.31;97399.34;5096996;28;997;-75
2024/03/05 09:42:26;;;;;;;;;;;;;;;22.00;28.09;97395.91;5113759;28;960;-74
2024/03/05 09:44:52;;;;;;;;;;;;;;;21.92;28.27;97411.59;5060788;28;1251;-75
2024/03/05 09:47:18;;;;;;;;;;;;;;;22.00;28.03;97390.25;5058031;28;955;-75
2024/03/05 09:49:44;;;;;;;;;;;;;;;22.05;27.53;97398.13;5074209;28;944;-75
2024/03/05 09:52:09;;;;;;;;;;;;;;;21.90;27.98;97397.88;5056542;28;1082;-75
2024/03/05 09:54:36;;;;;;;;;;;;;;;21.69;27.99;97398.69;5056446;28;1910;-75
2024/03/05 09:57:01;;;;;;;;;;;;;;;21.66;28.04;97389.06;5016679;28;1097;-74
2024/03/05 09:59:27;;;;;;;;;;;;;;;21.93;28.27;97390.53;5016919;28;1152;-74
2024/03/05 10:01:53;;;;;;;;;;;;;;;22.07;27.87;97387.13;5016737;28;1023;-74
2024/03/05 10:04:19;;;;;;;;;;;;;;;22.06;27.82;97383.50;5016976;28;1098;-74
2024/03/05 10:06:45;;;;;;;;;;;;;;;22.14;27.78;97378.41;5016724;28;791;-74
2024/03/05 10:09:12;;;;;;;;;;;;;;;21.78;27.83;97368.38;5016879;28;981;-74
2024/03/05 10:11:38;;;;;;;;;;;;;;;21.67;28.02;97378.53;5036416;28;1052;-74
2024/03/05 10:14:05;;;;;;;;;;;;;;;21.26;28.40;97367.00;5019542;28;1985;-74
2024/03/05 10:16:31;;;;;;;;;;;;;;;21.82;28.15;97363.38;5037310;28;954;-74
2024/03/05 10:18:56;;;;;;;;;;;;;;;21.76;28.00;97375.75;5023585;28;1116;-74
2024/03/05 10:21:23;;;;;;;;;;;;;;;21.79;27.88;97367.13;5056860;28;913;-75
2024/03/05 10:23:58;;;;;;;;;;;;;;;21.83;28.11;97359.31;5031944;28;1091;-73
2024/03/05 10:26:30;;;;;;;;;;;;;;;21.68;28.06;97363.91;5020033;28;1017;-73
2024/03/05 10:28:59;;;;;;;;;;;;;;;21.72;27.64;97356.09;5054100;28;853;-73
2024/03/05 10:31:25;;;;;;;;;;;;;;;21.57;27.93;97364.31;5039804;28;915;-74
2024/03/05 10:33:53;;;;;;;;;;;;;;;21.73;27.92;97349.16;5023234;28;1973;-73
2024/03/05 10:36:24;;;;;;;;;;;;;;;22.16;27.56;97347.53;5039753;28;1478;-74
2024/03/05 10:38:50;;;;;;;;;;;;;;;22.03;27.67;97346.84;5056432;28;896;-75
2024/03/05 10:41:35;;;;;;;;;;;;;;;22.01;27.59;97347.28;5039669;28;1206;-74
2024/03/05 10:44:00;;;;;;;;;;;;;;;21.84;27.58;97338.22;5019604;28;949;-73
2024/03/05 10:46:29;;;;;;;;;;;;;;;21.63;27.97;97349.56;5036152;28;1516;-73
2024/03/05 10:48:56;;;;;;;;;;;;;;;21.25;28.59;97339.97;5036186;28;1254;-73
2024/03/05 10:51:22;;;;;;;;;;;;;;;21.91;27.89;97330.69;5052997;28;928;-74
2024/03/05 10:53:48;;;;;;;;;;;;;;;22.05;27.47;97330.16;5036041;28;1902;-73
2024/03/05 10:56:14;;;;;;;;;;;;;;;22.06;27.46;97326.84;5036153;28;1558;-73
2024/03/05 11:01:09;;;;;;;;;;;;;;;22.07;26.88;97322.78;5051781;28;1193;-73
2024/03/05 11:03:41;;;;;;;;;;;;;;;21.65;27.58;97325.19;5065748;28;1185;-73
2024/03/05 11:06:06;;;;;;;;;;;;;;;21.80;27.37;97312.06;5065757;28;1216;-73
2024/03/05 11:08:35;;;;;;;;;;;;;;;21.99;27.23;97323.50;5084076;28;1359;-73
2024/03/05 11:11:07;;;;;;;;;;;;;;;22.03;27.40;97315.69;5082936;28;1255;-73
2024/03/05 11:13:33;;;;;;;;;;;;;;;21.91;27.35;97319.38;5065402;28;1984;-74
2024/03/05 11:16:00;;;;;;;;;;;;;;;22.07;27.01;97310.63;5051344;28;1244;-73
2024/03/05 11:18:26;;;;;;;;;;;;;;;21.69;27.45;97311.69;5065845;28;1224;-74
2024/03/05 11:20:53;;;;;;;;;;;;;;;21.56;27.64;97308.16;5059178;28;1213;-73
2024/03/05 11:23:20;;;;;;;;;;;;;;;21.10;28.38;97313.44;5056498;28;1147;-73
2024/03/05 11:25:46;;;;;;;;;;;;;;;21.89;27.59;97299.22;5073226;28;876;-74
2024/03/05 11:28:12;;;;;;;;;;;;;;;21.73;27.40;97295.38;5060174;28;1580;-74
2024/03/05 11:30:41;;;;;;;;;;;;;;;21.90;27.52;97300.78;5056662;28;1570;-77
2024/03/05 11:33:10;;;;;;;;;;;;;;;21.99;27.16;97309.34;5038517;28;1910;-75
2024/03/05 11:35:38;;;;;;;;;;;;;;;22.08;26.82;97312.22;5038568;28;1036;-75
2024/03/05 11:38:05;;;;;;;;;;;;;;;21.66;27.44;97309.81;5055355;28;1053;-76
2024/03/05 11:40:32;;;;;;;;;;;;;;;21.73;27.13;97309.53;5038544;28;996;-76
2024/03/05 11:42:57;;;;;;;;;;;;;;;21.59;27.63;97304.38;5021832;28;1246;-76
2024/03/05 11:45:41;;;;;;;;;;;;;;;21.79;27.38;97312.53;5038554;28;998;-76
2024/03/05 11:48:06;;;;;;;;;;;;;;;21.78;27.42;97300.44;5038530;28;963;-76
2024/03/05 11:50:32;;;;;;;;;;;;;;;21.72;27.54;97301.50;5021990;28;986;-76
2024/03/05 11:52:57;;;;;;;;;;;;;;;21.65;27.89;97308.19;5056581;28;1910;-76
2024/03/05 11:55:27;;;;;;;;;;;;;;;21.84;27.13;97312.72;5074178;28;1299;-75
2024/03/05 11:57:58;;;;;;;;;;;;;;;21.87;26.95;97301.75;5057411;28;1229;-76
2024/03/05 12:00:26;;;;;;;;;;;;;;;21.65;27.21;97298.91;5074406;28;1308;-76
2024/03/05 12:02:52;;;;;;;;;;;;;;;21.47;27.38;97302.44;5060745;28;1257;-76
2024/03/05 12:05:18;;;;;;;;;;;;;;;21.89;27.19;97305.69;5058148;28;1245;-76
2024/03/05 12:08:03;;;;;;;;;;;;;;;21.99;27.13;97300.84;5041321;28;935;-76
2024/03/05 12:10:31;;;;;;;;;;;;;;;21.89;26.95;97294.34;5058088;28;1054;-76
2024/03/05 12:13:02;;;;;;;;;;;;;;;21.75;27.39;97301.34;5074335;28;1207;-76
2024/03/05 12:15:28;;;;;;;;;;;;;;;21.91;27.00;97291.03;5074847;28;1054;-76
2024/03/05 12:17:54;;;;;;;;;;;;;;;21.77;26.86;97287.53;5074316;28;1027;-76
2024/03/05 12:20:19;;;;;;;;;;;;;;;21.64;27.21;97283.97;5057881;28;1012;-76
2024/03/05 12:22:51;;;;;;;;;;;;;;;22.00;26.88;97293.94;5074547;28;950;-76
2024/03/05 12:25:18;;;;;;;;;;;;;;;21.99;26.71;97298.03;5074312;28;928;-76
2024/03/05 12:27:49;;;;;;;;;;;;;;;21.77;27.15;97287.53;5021056;28;1342;-76
2024/03/05 12:30:15;;;;;;;;;;;;;;;21.94;27.03;97290.13;5037787;28;1122;-76
2024/03/05 12:32:48;;;;;;;;;;;;;;;22.01;26.76;97290.63;5037947;28;1567;-76
2024/03/05 12:35:14;;;;;;;;;;;;;;;21.44;27.41;97289.19;5074443;28;1971;-75
2024/03/05 12:37:43;;;;;;;;;;;;;;;21.44;27.51;97289.19;5057937;28;1033;-76
2024/03/05 12:40:15;;;;;;;;;;;;;;;22.01;26.97;97287.00;5073674;28;942;-76
2024/03/05 12:42:48;;;;;;;;;;;;;;;22.06;26.74;97295.69;5073811;28;1108;-74
2024/03/05 12:45:17;;;;;;;;;;;;;;;21.84;27.10;97292.13;5040959;28;1385;-73
2024/03/05 12:48:05;;;;;;;;;;;;;;;21.68;27.41;97298.78;5040853;28;1153;-73
2024/03/05 12:50:31;;;;;;;;;;;;;;;21.71;27.24;97300.72;5073803;28;976;-73
2024/03/05 12:53:00;;;;;;;;;;;;;;;21.65;27.10;97299.69;5040808;28;1073;-74
2024/03/05 12:55:27;;;;;;;;;;;;;;;21.82;26.67;97289.75;5040604;28;1012;-74
2024/03/05 12:58:02;;;;;;;;;;;;;;;21.94;27.00;97301.44;4998023;28;1188;-74
2024/03/05 13:00:28;;;;;;;;;;;;;;;21.84;27.04;97298.56;5014099;28;1166;-73
2024/03/05 13:02:53;;;;;;;;;;;;;;;21.93;26.97;97299.88;5014351;28;988;-73
2024/03/05 13:05:19;;;;;;;;;;;;;;;21.83;26.98;97284.88;5014285;28;975;-74